Time;durP1;ratioP1;P1;durP2;ratioP2;P2;SDS_P1;SDS_P2;PMS_P1;PMS_P2;Temp;Humidity;BMP_temperature;BMP_pressure;BME280_temperature;BME280_humidity;BME280_pressure;Samples;Min_cycle;Max_cycle;Signal;HPM_P1;HPM_P2
2022/08/29 00:01:52;;;;;;;6.35;1.33;;;;;;;;;;4967806;28;20035;-87
2022/08/29 00:04:17;;;;;;;2.90;1.40;;;;;;;;;;4966341;28;20049;-87
2022/08/29 00:06:42;;;;;;;4.63;1.42;;;;;;;;;;4968848;28;20023;-86
2022/08/29 00:09:08;;;;;;;3.13;1.50;;;;;;;;;;4967153;28;20077;-87
2022/08/29 00:11:33;;;;;;;4.97;1.30;;;;;;;;;;4983533;28;20045;-86
2022/08/29 00:13:59;;;;;;;4.97;1.33;;;;;;;;;;4988502;28;20532;-87
2022/08/29 00:16:24;;;;;;;2.90;1.50;;;;;;;;;;4991506;28;20129;-86
2022/08/29 00:18:50;;;;;;;3.25;1.30;;;;;;;;;;4991416;28;20026;-87
2022/08/29 00:21:15;;;;;;;3.45;1.40;;;;;;;;;;4992590;28;20033;-86
2022/08/29 00:23:43;;;;;;;2.65;1.83;;;;;;;;;;5004967;28;20031;-86
2022/08/29 00:26:09;;;;;;;3.55;1.30;;;;;;;;;;4992435;28;20030;-87
2022/08/29 00:28:34;;;;;;;1.40;1.10;;;;;;;;;;4992471;28;20415;-87
2022/08/29 00:31:00;;;;;;;2.40;1.20;;;;;;;;;;4989206;28;20048;-87
2022/08/29 00:33:26;;;;;;;4.13;1.38;;;;;;;;;;4990434;28;20030;-86
2022/08/29 00:35:51;;;;;;;2.60;1.50;;;;;;;;;;4984342;28;20038;-87
2022/08/29 00:38:17;;;;;;;2.20;1.27;;;;;;;;;;4993141;28;20039;-86
2022/08/29 00:40:48;;;;;;;2.90;1.30;;;;;;;;;;4993167;28;20492;-86
2022/08/29 00:43:14;;;;;;;2.63;1.73;;;;;;;;;;5000626;28;20061;-87
2022/08/29 00:45:49;;;;;;;3.10;1.63;;;;;;;;;;4991591;28;20447;-87
2022/08/29 00:48:17;;;;;;;2.30;1.50;;;;;;;;;;4985538;28;20036;-88
2022/08/29 00:50:49;;;;;;;1.77;1.13;;;;;;;;;;4991134;28;20038;-87
2022/08/29 00:53:18;;;;;;;1.90;1.10;;;;;;;;;;4990137;28;20034;-87
2022/08/29 00:55:45;;;;;;;5.72;1.60;;;;;;;;;;4991267;28;20046;-86
2022/08/29 00:58:15;;;;;;;4.20;1.35;;;;;;;;;;4991234;28;20178;-86
2022/08/29 01:00:42;;;;;;;3.95;1.55;;;;;;;;;;4991757;28;20026;-86
2022/08/29 01:03:08;;;;;;;4.05;1.50;;;;;;;;;;4991430;28;20037;-87
2022/08/29 01:05:35;;;;;;;2.25;1.50;;;;;;;;;;4987344;28;20057;-86
2022/08/29 01:08:00;;;;;;;5.63;1.35;;;;;;;;;;4988333;28;20864;-87
2022/08/29 01:13:11;;;;;;;2.20;1.42;;;;;;;;;;4984534;28;20041;-86
2022/08/29 01:15:39;;;;;;;2.85;1.50;;;;;;;;;;4989273;28;20503;-87
2022/08/29 01:18:07;;;;;;;4.20;1.40;;;;;;;;;;4988174;28;20038;-86
2022/08/29 01:20:39;;;;;;;4.93;1.50;;;;;;;;;;4988779;28;20770;-87
2022/08/29 01:23:14;;;;;;;3.80;1.30;;;;;;;;;;4988743;28;20070;-87
2022/08/29 01:25:50;;;;;;;3.60;1.88;;;;;;;;;;4992230;28;20066;-87
2022/08/29 01:28:21;;;;;;;4.60;1.30;;;;;;;;;;4988098;28;20100;-87
2022/08/29 01:31:03;;;;;;;5.20;1.67;;;;;;;;;;5006697;28;20010;-87
2022/08/29 01:33:43;;;;;;;3.70;1.20;;;;;;;;;;5007614;28;20059;-87
2022/08/29 01:36:11;;;;;;;3.45;1.45;;;;;;;;;;4998104;28;20050;-87
2022/08/29 01:38:37;;;;;;;2.88;1.48;;;;;;;;;;5005067;28;20562;-87
2022/08/29 01:41:04;;;;;;;3.13;1.30;;;;;;;;;;5001085;28;20043;-87
2022/08/29 01:43:30;;;;;;;3.55;1.63;;;;;;;;;;4980781;28;20053;-86
2022/08/29 01:45:57;;;;;;;1.80;1.23;;;;;;;;;;4974518;28;20027;-86
2022/08/29 01:48:22;;;;;;;2.50;1.70;;;;;;;;;;4973137;28;20485;-87
2022/08/29 01:50:48;;;;;;;3.00;1.58;;;;;;;;;;4971733;28;20129;-86
2022/08/29 01:53:14;;;;;;;4.82;1.42;;;;;;;;;;4971506;28;20039;-87
2022/08/29 01:55:39;;;;;;;2.72;1.63;;;;;;;;;;4968909;28;20034;-86
2022/08/29 01:58:06;;;;;;;3.55;1.80;;;;;;;;;;4968991;28;20133;-86
2022/08/29 02:00:32;;;;;;;3.92;1.20;;;;;;;;;;4975547;28;20424;-87
2022/08/29 02:02:59;;;;;;;4.05;1.52;;;;;;;;;;4971023;28;20035;-87
2022/08/29 02:05:26;;;;;;;3.05;1.60;;;;;;;;;;4970391;28;20149;-85
2022/08/29 02:07:52;;;;;;;4.78;1.52;;;;;;;;;;4970106;28;20086;-86
2022/08/29 02:10:17;;;;;;;3.80;1.75;;;;;;;;;;5003858;28;20046;-87
2022/08/29 02:12:43;;;;;;;4.07;1.77;;;;;;;;;;4968293;28;20101;-86
2022/08/29 02:15:08;;;;;;;2.30;1.42;;;;;;;;;;4973244;28;20111;-87
2022/08/29 02:17:34;;;;;;;2.17;1.33;;;;;;;;;;4971063;28;20039;-88
2022/08/29 02:20:00;;;;;;;2.20;1.30;;;;;;;;;;4971240;28;20046;-86
2022/08/29 02:22:26;;;;;;;2.08;1.40;;;;;;;;;;4971340;28;20096;-87
2022/08/29 02:24:51;;;;;;;3.15;1.50;;;;;;;;;;4969746;28;20023;-88
2022/08/29 02:27:16;;;;;;;4.53;1.80;;;;;;;;;;4971083;28;20030;-88
2022/08/29 02:29:42;;;;;;;2.22;1.38;;;;;;;;;;4967436;28;20453;-89
2022/08/29 02:32:11;;;;;;;3.60;1.70;;;;;;;;;;4968828;28;20135;-87
2022/08/29 02:34:36;;;;;;;3.38;1.50;;;;;;;;;;4992446;28;20122;-87
2022/08/29 02:37:03;;;;;;;7.03;1.80;;;;;;;;;;4969705;28;20114;-87
2022/08/29 02:39:29;;;;;;;2.78;1.40;;;;;;;;;;4970874;28;20080;-87
2022/08/29 02:41:55;;;;;;;2.83;1.50;;;;;;;;;;4966119;28;20055;-87
2022/08/29 02:44:21;;;;;;;3.63;1.40;;;;;;;;;;4962299;28;20076;-86
2022/08/29 02:46:47;;;;;;;3.90;1.70;;;;;;;;;;4963718;28;20097;-87
2022/08/29 02:49:12;;;;;;;6.78;1.73;;;;;;;;;;4968266;28;20035;-86
2022/08/29 02:51:38;;;;;;;6.22;1.45;;;;;;;;;;4965346;28;20033;-86
2022/08/29 02:54:04;;;;;;;3.65;1.50;;;;;;;;;;4965933;28;20047;-85
2022/08/29 02:56:29;;;;;;;4.32;1.38;;;;;;;;;;4956126;28;20087;-87
2022/08/29 02:58:55;;;;;;;5.07;1.48;;;;;;;;;;4967604;28;20545;-87
2022/08/29 03:01:21;;;;;;;5.13;1.50;;;;;;;;;;4964657;28;20493;-85
2022/08/29 03:03:49;;;;;;;5.97;1.60;;;;;;;;;;4967803;28;20030;-87
2022/08/29 03:06:15;;;;;;;3.45;1.27;;;;;;;;;;4965110;28;20038;-87
2022/08/29 03:08:40;;;;;;;4.70;1.55;;;;;;;;;;4966163;28;20035;-87
2022/08/29 03:11:07;;;;;;;3.72;1.50;;;;;;;;;;4969537;28;20037;-87
2022/08/29 03:13:33;;;;;;;5.43;1.70;;;;;;;;;;4961010;28;20061;-86
2022/08/29 03:16:00;;;;;;;2.60;1.42;;;;;;;;;;4968557;28;20061;-87
2022/08/29 03:18:25;;;;;;;4.15;1.70;;;;;;;;;;4961293;28;20035;-87
2022/08/29 03:20:52;;;;;;;3.28;1.38;;;;;;;;;;4958491;28;20051;-87
2022/08/29 03:23:18;;;;;;;3.85;1.80;;;;;;;;;;4969382;28;20055;-85
2022/08/29 03:25:44;;;;;;;2.70;1.40;;;;;;;;;;4969129;28;20509;-87
2022/08/29 03:28:09;;;;;;;4.72;1.40;;;;;;;;;;4968679;28;20031;-87
2022/08/29 03:30:36;;;;;;;3.78;1.33;;;;;;;;;;4968763;28;20023;-87
2022/08/29 03:33:04;;;;;;;2.95;1.60;;;;;;;;;;4960846;28;20039;-86
2022/08/29 03:35:30;;;;;;;2.92;1.40;;;;;;;;;;4968456;28;20513;-86
2022/08/29 03:37:55;;;;;;;2.97;1.35;;;;;;;;;;4968098;28;20038;-85
2022/08/29 03:40:21;;;;;;;4.72;1.42;;;;;;;;;;4965371;28;20481;-87
2022/08/29 03:42:46;;;;;;;5.03;1.80;;;;;;;;;;4968046;28;20042;-85
2022/08/29 03:45:16;;;;;;;2.83;1.70;;;;;;;;;;4964906;28;20027;-86
2022/08/29 03:47:42;;;;;;;2.03;1.60;;;;;;;;;;4964809;28;20502;-87
2022/08/29 03:50:08;;;;;;;6.18;1.58;;;;;;;;;;4969472;28;20042;-88
2022/08/29 03:52:34;;;;;;;5.03;1.50;;;;;;;;;;4967566;28;20603;-86
2022/08/29 03:54:59;;;;;;;7.70;1.73;;;;;;;;;;4967416;28;20044;-87
2022/08/29 03:57:25;;;;;;;1.95;1.30;;;;;;;;;;4964200;28;20039;-86
2022/08/29 03:59:52;;;;;;;2.45;1.30;;;;;;;;;;4963128;28;20051;-87
2022/08/29 04:02:17;;;;;;;6.07;1.80;;;;;;;;;;4968884;28;20085;-86
2022/08/29 04:07:27;;;;;;;1.80;1.33;;;;;;;;;;4968726;28;20098;-86
2022/08/29 04:09:52;;;;;;;2.67;1.48;;;;;;;;;;4965455;28;20038;-88
2022/08/29 04:12:18;;;;;;;2.08;1.40;;;;;;;;;;4965207;28;20026;-86
2022/08/29 04:14:43;;;;;;;3.42;1.70;;;;;;;;;;4966635;28;20063;-86
2022/08/29 04:17:09;;;;;;;3.72;1.85;;;;;;;;;;4969739;28;20041;-87
2022/08/29 04:19:35;;;;;;;4.78;1.55;;;;;;;;;;4969347;28;20043;-86
2022/08/29 04:22:02;;;;;;;4.93;1.80;;;;;;;;;;4967198;28;20039;-87
2022/08/29 04:24:30;;;;;;;5.32;1.73;;;;;;;;;;4966362;28;20436;-87
2022/08/29 04:26:56;;;;;;;3.67;1.60;;;;;;;;;;4968009;28;20118;-89
2022/08/29 04:29:21;;;;;;;3.88;1.25;;;;;;;;;;4962804;28;20501;-87
2022/08/29 04:31:46;;;;;;;2.25;1.52;;;;;;;;;;4970288;28;20050;-87
2022/08/29 04:34:12;;;;;;;2.95;1.45;;;;;;;;;;4968834;28;20041;-88
2022/08/29 04:36:40;;;;;;;4.65;1.70;;;;;;;;;;4965458;28;20122;-86
2022/08/29 04:39:07;;;;;;;5.85;1.92;;;;;;;;;;4962940;28;20039;-85
2022/08/29 04:41:33;;;;;;;2.85;1.67;;;;;;;;;;4968810;28;20066;-87
2022/08/29 04:44:00;;;;;;;5.78;1.55;;;;;;;;;;4967437;28;20042;-88
2022/08/29 04:46:25;;;;;;;3.13;1.55;;;;;;;;;;4966629;28;20027;-86
2022/08/29 04:48:52;;;;;;;3.88;1.85;;;;;;;;;;4968061;28;20033;-87
2022/08/29 04:51:17;;;;;;;3.60;1.80;;;;;;;;;;4968111;28;20018;-86
2022/08/29 04:53:42;;;;;;;4.38;1.85;;;;;;;;;;4966620;28;20047;-85
2022/08/29 04:56:10;;;;;;;4.03;1.80;;;;;;;;;;4967652;28;20113;-86
2022/08/29 04:58:39;;;;;;;4.47;1.80;;;;;;;;;;4967195;28;20047;-84
2022/08/29 05:01:05;;;;;;;3.88;1.60;;;;;;;;;;4970288;28;20039;-85
2022/08/29 05:03:32;;;;;;;2.58;1.27;;;;;;;;;;4969324;28;20053;-85
2022/08/29 05:06:07;;;;;;;8.55;1.65;;;;;;;;;;4970025;28;20420;-86
2022/08/29 05:08:36;;;;;;;3.45;1.58;;;;;;;;;;4963638;28;20038;-86
2022/08/29 05:11:02;;;;;;;4.28;1.50;;;;;;;;;;4969625;28;20047;-86
2022/08/29 05:13:28;;;;;;;4.60;1.65;;;;;;;;;;4963521;28;20043;-84
2022/08/29 05:15:54;;;;;;;4.32;1.77;;;;;;;;;;4960172;28;20031;-86
2022/08/29 05:18:19;;;;;;;18.27;2.40;;;;;;;;;;4969645;28;20412;-85
2022/08/29 05:20:47;;;;;;;6.63;2.42;;;;;;;;;;4968871;28;20042;-86
2022/08/29 05:23:15;;;;;;;4.38;1.75;;;;;;;;;;4964075;28;20039;-86
2022/08/29 05:25:41;;;;;;;7.05;1.67;;;;;;;;;;4967078;28;20620;-86
2022/08/29 05:28:10;;;;;;;5.13;1.95;;;;;;;;;;4965383;28;20047;-86
2022/08/29 05:30:37;;;;;;;6.95;1.90;;;;;;;;;;4973022;28;20058;-85
2022/08/29 05:33:02;;;;;;;5.30;1.85;;;;;;;;;;4964825;28;20118;-85
2022/08/29 05:35:28;;;;;;;3.67;1.95;;;;;;;;;;4969372;28;20122;-84
2022/08/29 05:37:53;;;;;;;3.80;1.70;;;;;;;;;;4965890;28;20507;-87
2022/08/29 05:40:19;;;;;;;5.10;1.80;;;;;;;;;;4970365;28;20059;-86
2022/08/29 05:42:44;;;;;;;4.18;1.88;;;;;;;;;;4970726;28;20031;-88
2022/08/29 05:45:10;;;;;;;5.47;1.85;;;;;;;;;;4972196;28;20374;-87
2022/08/29 05:47:35;;;;;;;4.00;1.60;;;;;;;;;;4986556;28;20031;-87
2022/08/29 05:50:01;;;;;;;4.28;1.73;;;;;;;;;;4972134;28;20093;-88
2022/08/29 05:52:27;;;;;;;3.70;1.63;;;;;;;;;;4962830;28;20050;-86
2022/08/29 05:54:53;;;;;;;5.35;2.40;;;;;;;;;;4975998;28;20077;-87
2022/08/29 05:57:21;;;;;;;5.05;1.92;;;;;;;;;;4970090;28;20051;-87
2022/08/29 05:59:48;;;;;;;6.25;2.10;;;;;;;;;;4973270;28;20081;-86
2022/08/29 06:02:13;;;;;;;4.15;1.50;;;;;;;;;;4991607;28;20058;-89
2022/08/29 06:04:39;;;;;;;5.43;1.88;;;;;;;;;;4991562;28;20042;-87
2022/08/29 06:07:06;;;;;;;6.15;1.80;;;;;;;;;;4963932;28;20034;-88
2022/08/29 06:09:32;;;;;;;5.65;2.10;;;;;;;;;;4962515;28;20041;-88
2022/08/29 06:11:57;;;;;;;2.17;1.55;;;;;;;;;;4973898;28;20125;-88
2022/08/29 06:14:23;;;;;;;3.70;1.75;;;;;;;;;;4965968;28;20174;-86
2022/08/29 06:16:50;;;;;;;5.43;1.88;;;;;;;;;;4972094;28;20039;-89
2022/08/29 06:19:15;;;;;;;8.13;2.20;;;;;;;;;;4970905;28;20174;-91
2022/08/29 06:21:41;;;;;;;8.52;2.28;;;;;;;;;;4968031;28;20126;-89
2022/08/29 06:24:06;;;;;;;3.35;1.85;;;;;;;;;;4972479;28;20035;-91
2022/08/29 06:26:33;;;;;;;10.65;1.98;;;;;;;;;;4982834;28;20031;-89
2022/08/29 06:28:58;;;;;;;4.82;2.10;;;;;;;;;;4969442;28;20035;-87
2022/08/29 06:31:26;;;;;;;4.25;2.10;;;;;;;;;;4972509;28;20406;-84
2022/08/29 06:33:55;;;;;;;5.90;2.15;;;;;;;;;;4971648;28;20400;-89
2022/08/29 06:36:21;;;;;;;4.47;2.40;;;;;;;;;;4971277;28;20034;-90
2022/08/29 06:38:47;;;;;;;4.85;2.13;;;;;;;;;;4968853;28;20031;-87
2022/08/29 06:41:14;;;;;;;10.40;2.20;;;;;;;;;;4969100;28;20046;-87
2022/08/29 06:43:41;;;;;;;5.53;2.40;;;;;;;;;;4980774;28;20689;-88
2022/08/29 06:46:07;;;;;;;3.60;2.05;;;;;;;;;;4969118;28;20042;-86
2022/08/29 06:48:33;;;;;;;8.90;2.38;;;;;;;;;;4968626;28;20026;-83
2022/08/29 06:51:00;;;;;;;2.90;2.03;;;;;;;;;;4968215;28;20170;-86
2022/08/29 06:53:27;;;;;;;4.45;2.05;;;;;;;;;;4964615;28;20119;-84
2022/08/29 06:55:53;;;;;;;5.25;1.88;;;;;;;;;;4963761;28;20047;-86
2022/08/29 06:58:18;;;;;;;4.40;2.00;;;;;;;;;;4965108;28;20487;-86
2022/08/29 07:00:44;;;;;;;4.65;2.00;;;;;;;;;;4964514;28;20030;-88
2022/08/29 07:03:09;;;;;;;5.18;2.40;;;;;;;;;;4962064;28;20449;-84
2022/08/29 07:05:35;;;;;;;7.85;3.83;;;;;;;;;;4965736;28;20042;-85
2022/08/29 07:08:00;;;;;;;4.05;2.50;;;;;;;;;;4967593;28;20061;-85
2022/08/29 07:10:26;;;;;;;3.83;1.95;;;;;;;;;;4964581;28;20504;-88
2022/08/29 07:12:52;;;;;;;6.80;2.60;;;;;;;;;;4963987;28;20031;-84
2022/08/29 07:15:19;;;;;;;7.82;2.50;;;;;;;;;;4967881;28;20033;-88
2022/08/29 07:17:45;;;;;;;7.43;2.45;;;;;;;;;;4968555;28;20042;-86
2022/08/29 07:20:10;;;;;;;5.95;2.38;;;;;;;;;;4964986;28;20035;-85
2022/08/29 07:22:36;;;;;;;3.78;2.00;;;;;;;;;;4964961;28;20046;-85
2022/08/29 07:25:01;;;;;;;4.70;1.80;;;;;;;;;;4963836;28;21128;-85
2022/08/29 07:27:26;;;;;;;10.25;1.90;;;;;;;;;;4964434;28;20027;-86
2022/08/29 07:29:52;;;;;;;5.90;1.70;;;;;;;;;;4973329;28;20569;-85
2022/08/29 07:32:17;;;;;;;4.13;1.58;;;;;;;;;;4953511;28;20057;-84
2022/08/29 07:34:42;;;;;;;11.07;2.38;;;;;;;;;;4959259;28;20046;-84
2022/08/29 07:37:09;;;;;;;10.60;1.90;;;;;;;;;;4963147;28;20768;-84
2022/08/29 07:39:35;;;;;;;4.85;1.80;;;;;;;;;;4980591;28;20493;-85
2022/08/29 07:42:01;;;;;;;3.55;1.80;;;;;;;;;;4961596;28;20044;-83
2022/08/29 07:44:27;;;;;;;3.78;1.90;;;;;;;;;;4963479;28;20113;-83
2022/08/29 07:46:56;;;;;;;2.75;1.45;;;;;;;;;;4967940;28;20091;-82
2022/08/29 07:49:27;;;;;;;5.18;1.77;;;;;;;;;;4966914;28;20050;-84
2022/08/29 07:51:54;;;;;;;9.60;1.60;;;;;;;;;;4960846;28;20027;-82
2022/08/29 07:54:20;;;;;;;4.70;1.60;;;;;;;;;;4968015;28;20451;-83
2022/08/29 07:56:49;;;;;;;5.72;1.90;;;;;;;;;;4968175;28;20105;-82
2022/08/29 07:59:16;;;;;;;6.82;1.58;;;;;;;;;;4968659;28;20081;-83
2022/08/29 08:01:42;;;;;;;3.35;1.42;;;;;;;;;;4969479;28;20030;-83
2022/08/29 08:04:08;;;;;;;6.00;1.90;;;;;;;;;;4967055;28;20573;-83
2022/08/29 08:06:35;;;;;;;4.00;1.63;;;;;;;;;;4963033;28;20022;-82
2022/08/29 08:09:01;;;;;;;3.92;1.60;;;;;;;;;;4967233;28;20019;-82
2022/08/29 08:11:26;;;;;;;4.45;1.65;;;;;;;;;;4964428;28;20039;-81
2022/08/29 08:13:54;;;;;;;4.18;1.73;;;;;;;;;;4967825;28;20079;-82
2022/08/29 08:16:21;;;;;;;3.53;1.60;;;;;;;;;;4960592;28;20045;-82
2022/08/29 08:18:48;;;;;;;2.08;1.40;;;;;;;;;;4956903;28;20535;-82
2022/08/29 08:21:13;;;;;;;3.25;1.63;;;;;;;;;;4957737;28;20146;-84
2022/08/29 08:23:39;;;;;;;4.55;1.50;;;;;;;;;;4960930;28;20580;-82
2022/08/29 08:26:05;;;;;;;3.03;1.67;;;;;;;;;;4963958;28;20026;-82
2022/08/29 08:28:31;;;;;;;2.75;1.70;;;;;;;;;;4965573;28;20038;-82
2022/08/29 08:30:58;;;;;;;5.40;1.55;;;;;;;;;;4965231;28;20027;-82
2022/08/29 08:33:24;;;;;;;2.70;1.33;;;;;;;;;;4966229;28;20027;-83
2022/08/29 08:35:49;;;;;;;5.45;1.60;;;;;;;;;;4960868;28;20691;-83
2022/08/29 08:38:15;;;;;;;4.00;1.27;;;;;;;;;;4964649;28;20037;-82
2022/08/29 08:40:48;;;;;;;3.33;1.63;;;;;;;;;;4973729;28;20034;-82
2022/08/29 08:43:18;;;;;;;2.92;1.52;;;;;;;;;;5000044;28;20042;-84
2022/08/29 08:45:43;;;;;;;10.60;2.08;;;;;;;;;;4986723;28;20046;-83
2022/08/29 08:48:36;;;;;;;4.90;1.50;;;;;;;;;;4982868;28;20019;-83
2022/08/29 08:51:12;;;;;;;2.75;1.60;;;;;;;;;;4976144;28;20039;-83
2022/08/29 08:53:42;;;;;;;3.95;1.52;;;;;;;;;;4955826;28;20283;-83
2022/08/29 08:56:34;;;;;;;7.32;1.50;;;;;;;;;;4957809;28;20055;-82
2022/08/29 08:59:39;;;;;;;9.73;1.92;;;;;;;;;;4957644;28;20051;-82
2022/08/29 09:02:34;;;;;;;5.22;1.40;;;;;;;;;;4928985;28;20043;-82
2022/08/29 09:05:35;;;;;;;4.63;1.48;;;;;;;;;;4987891;28;20047;-82
2022/08/29 09:08:17;;;;;;;3.38;1.70;;;;;;;;;;4987076;28;20066;-83
2022/08/29 09:10:42;;;;;;;3.58;1.58;;;;;;;;;;5003065;28;20590;-81
2022/08/29 09:13:23;;;;;;;6.53;1.70;;;;;;;;;;4986249;28;20038;-82
2022/08/29 09:15:51;;;;;;;5.68;1.58;;;;;;;;;;4985742;28;20029;-84
2022/08/29 09:18:32;;;;;;;5.75;1.70;;;;;;;;;;4985548;28;20107;-83
2022/08/29 09:20:58;;;;;;;4.47;1.38;;;;;;;;;;4989261;28;20050;-83
2022/08/29 09:23:53;;;;;;;5.15;1.58;;;;;;;;;;4990342;28;20037;-83
2022/08/29 09:26:20;;;;;;;5.30;1.60;;;;;;;;;;4979827;28;20041;-83
2022/08/29 09:28:46;;;;;;;6.93;1.42;;;;;;;;;;4989882;28;20096;-82
2022/08/29 09:31:15;;;;;;;5.95;1.50;;;;;;;;;;4985642;28;20073;-82
2022/08/29 09:33:43;;;;;;;4.82;1.70;;;;;;;;;;4983635;28;20022;-83
2022/08/29 09:36:12;;;;;;;3.00;1.38;;;;;;;;;;4985909;28;20022;-82
2022/08/29 09:38:38;;;;;;;2.45;1.67;;;;;;;;;;4986089;28;20465;-83
2022/08/29 09:41:13;;;;;;;3.35;1.60;;;;;;;;;;4985123;28;20034;-83
2022/08/29 09:43:39;;;;;;;2.75;1.60;;;;;;;;;;4986281;28;20042;-83
2022/08/29 09:46:19;;;;;;;3.15;1.70;;;;;;;;;;4985676;28;20038;-83
2022/08/29 09:49:12;;;;;;;14.95;2.22;;;;;;;;;;4986136;28;20026;-83
2022/08/29 09:51:41;;;;;;;3.50;1.50;;;;;;;;;;4998850;28;20526;-85
2022/08/29 09:54:24;;;;;;;5.28;1.67;;;;;;;;;;4987043;28;20038;-84
2022/08/29 09:57:21;;;;;;;2.90;1.80;;;;;;;;;;4989967;28;20093;-84
2022/08/29 10:00:03;;;;;;;5.10;1.83;;;;;;;;;;4983658;28;20050;-84
2022/08/29 10:02:34;;;;;;;5.30;2.08;;;;;;;;;;4988243;28;20113;-83
2022/08/29 10:05:05;;;;;;;6.60;1.90;;;;;;;;;;4988213;28;20520;-85
2022/08/29 10:07:46;;;;;;;4.03;1.40;;;;;;;;;;5001413;28;20034;-86
2022/08/29 10:10:22;;;;;;;7.15;1.77;;;;;;;;;;4983421;28;20467;-83
2022/08/29 10:12:56;;;;;;;4.75;1.83;;;;;;;;;;4984965;28;20400;-86
2022/08/29 10:15:38;;;;;;;3.33;1.90;;;;;;;;;;4985281;28;20066;-84
2022/08/29 10:18:27;;;;;;;5.32;1.73;;;;;;;;;;4998528;28;20420;-85
2022/08/29 10:21:14;;;;;;;3.15;1.70;;;;;;;;;;4986787;28;20077;-85
2022/08/29 10:24:11;;;;;;;2.95;1.77;;;;;;;;;;4984757;28;20049;-85
2022/08/29 10:27:14;;;;;;;7.35;1.98;;;;;;;;;;4981423;28;20046;-83
2022/08/29 10:30:11;;;;;;;3.47;1.45;;;;;;;;;;4986721;28;20050;-87
2022/08/29 10:33:13;;;;;;;3.22;1.50;;;;;;;;;;5007179;28;20106;-86
2022/08/29 10:35:41;;;;;;;4.10;1.70;;;;;;;;;;4985756;28;20034;-85
2022/08/29 10:38:34;;;;;;;4.45;1.77;;;;;;;;;;4971466;28;20122;-86
2022/08/29 10:41:18;;;;;;;5.28;1.85;;;;;;;;;;4963943;28;20616;-86
2022/08/29 10:43:54;;;;;;;5.47;2.22;;;;;;;;;;4988955;28;20049;-86
2022/08/29 10:46:36;;;;;;;3.72;1.83;;;;;;;;;;4978238;28;20077;-85
2022/08/29 10:49:09;;;;;;;4.55;1.60;;;;;;;;;;4960203;28;20590;-85
2022/08/29 10:51:50;;;;;;;5.20;1.80;;;;;;;;;;4966430;28;20026;-85
2022/08/29 10:54:21;;;;;;;3.28;1.50;;;;;;;;;;4962245;28;20401;-85
2022/08/29 10:56:49;;;;;;;7.13;1.63;;;;;;;;;;4967032;28;20074;-86
2022/08/29 10:59:21;;;;;;;3.45;1.67;;;;;;;;;;4964590;28;20062;-88
2022/08/29 11:01:54;;;;;;;3.00;1.70;;;;;;;;;;4959468;28;20030;-89
2022/08/29 11:04:26;;;;;;;3.17;1.63;;;;;;;;;;4976440;28;20042;-86
2022/08/29 11:07:03;;;;;;;2.88;1.70;;;;;;;;;;4950186;28;20030;-87
2022/08/29 11:09:37;;;;;;;2.90;1.63;;;;;;;;;;4963249;28;20030;-85
2022/08/29 11:12:06;;;;;;;5.18;2.00;;;;;;;;;;4965377;28;20042;-86
2022/08/29 11:14:38;;;;;;;3.38;1.60;;;;;;;;;;4979047;28;20053;-87
2022/08/29 11:17:08;;;;;;;4.18;2.00;;;;;;;;;;4963924;28;20045;-87
2022/08/29 11:19:46;;;;;;;4.30;1.73;;;;;;;;;;4966199;28;20062;-86
2022/08/29 11:22:19;;;;;;;2.25;1.40;;;;;;;;;;4967329;28;20610;-87
2022/08/29 11:24:55;;;;;;;3.83;1.88;;;;;;;;;;4963967;28;20054;-87
2022/08/29 11:27:27;;;;;;;4.53;1.90;;;;;;;;;;4963381;28;20035;-87
2022/08/29 11:30:01;;;;;;;8.32;1.60;;;;;;;;;;4946626;28;20520;-88
2022/08/29 11:33:04;;;;;;;7.20;2.22;;;;;;;;;;4964545;28;20103;-86
2022/08/29 11:35:57;;;;;;;3.95;1.83;;;;;;;;;;4981130;28;20108;-86
2022/08/29 11:38:28;;;;;;;5.15;1.90;;;;;;;;;;4981549;28;20541;-85
2022/08/29 11:41:44;;;;;;;4.15;1.95;;;;;;;;;;4977377;28;20039;-86
2022/08/29 11:44:26;;;;;;;4.00;1.77;;;;;;;;;;4922594;29;20770;-87
2022/08/29 11:46:52;;;;;;;2.90;1.60;;;;;;;;;;4906430;29;20044;-87
2022/08/29 11:49:40;;;;;;;5.07;1.95;;;;;;;;;;4936226;28;20488;-87
2022/08/29 11:52:09;;;;;;;8.60;2.10;;;;;;;;;;4957512;28;20048;-86
2022/08/29 11:54:35;;;;;;;8.90;1.95;;;;;;;;;;4958670;28;20035;-87
2022/08/29 11:57:01;;;;;;;3.15;1.63;;;;;;;;;;4964853;28;20126;-87
2022/08/29 11:59:49;;;;;;;3.42;1.70;;;;;;;;;;4980308;28;20189;-87
2022/08/29 12:02:27;;;;;;;5.55;1.92;;;;;;;;;;4953595;28;20053;-88
2022/08/29 12:04:55;;;;;;;3.92;2.08;;;;;;;;;;4962589;28;20058;-86
2022/08/29 12:07:33;;;;;;;5.75;1.80;;;;;;;;;;4958937;28;20050;-87
2022/08/29 12:10:01;;;;;;;5.05;2.00;;;;;;;;;;4967962;28;20046;-86
2022/08/29 12:12:46;;;;;;;4.75;2.22;;;;;;;;;;4980453;28;20026;-85
2022/08/29 12:15:26;;;;;;;6.07;1.80;;;;;;;;;;5000752;28;20412;-84
2022/08/29 12:17:58;;;;;;;5.18;1.70;;;;;;;;;;4981817;28;21088;-84
2022/08/29 12:20:29;;;;;;;4.45;1.92;;;;;;;;;;4982561;28;20044;-86
2022/08/29 12:23:16;;;;;;;5.97;2.10;;;;;;;;;;4979621;28;20155;-85
2022/08/29 12:25:53;;;;;;;3.63;2.00;;;;;;;;;;4981180;28;20623;-84
2022/08/29 12:28:29;;;;;;;5.63;2.20;;;;;;;;;;4983122;28;20049;-86
2022/08/29 12:30:58;;;;;;;5.97;2.00;;;;;;;;;;4983018;28;20030;-87
2022/08/29 12:33:45;;;;;;;9.65;2.22;;;;;;;;;;4981484;28;20030;-86
2022/08/29 12:36:43;;;;;;;5.53;2.30;;;;;;;;;;4982979;28;20046;-85
2022/08/29 12:39:26;;;;;;;5.47;1.75;;;;;;;;;;4982898;28;20062;-87
2022/08/29 12:42:04;;;;;;;;;;;;;;;;;;4980028;28;20042;-88
2022/08/29 12:45:03;;;;;;;4.90;2.30;;;;;;;;;;4957531;28;19937;-87
2022/08/29 12:47:37;;;;;;;5.53;1.90;;;;;;;;;;4960791;28;20067;-85
2022/08/29 12:50:12;;;;;;;3.80;2.22;;;;;;;;;;4962523;28;20434;-86
2022/08/29 12:52:38;;;;;;;4.68;1.70;;;;;;;;;;4958671;28;20062;-85
2022/08/29 12:55:17;;;;;;;7.88;2.10;;;;;;;;;;4956569;28;20067;-86
2022/08/29 12:57:44;;;;;;;15.30;3.08;;;;;;;;;;4958798;28;20054;-86
2022/08/29 13:00:19;;;;;;;3.63;2.08;;;;;;;;;;4960915;28;20163;-84
2022/08/29 13:03:06;;;;;;;2.90;1.75;;;;;;;;;;4964041;28;20041;-86
2022/08/29 13:05:35;;;;;;;3.05;1.80;;;;;;;;;;4965289;28;20459;-85
2022/08/29 13:08:06;;;;;;;4.75;2.10;;;;;;;;;;4963199;28;20031;-84
2022/08/29 13:10:33;;;;;;;4.28;1.95;;;;;;;;;;4966448;28;20050;-84
2022/08/29 13:13:04;;;;;;;3.95;1.77;;;;;;;;;;4968734;28;20042;-85
2022/08/29 13:15:29;;;;;;;4.72;2.05;;;;;;;;;;4965791;28;20031;-84
2022/08/29 13:17:55;;;;;;;3.75;1.60;;;;;;;;;;4960694;28;20390;-85
2022/08/29 13:20:39;;;;;;;6.18;1.67;;;;;;;;;;4981150;28;20038;-84
2022/08/29 13:23:10;;;;;;;7.45;2.47;;;;;;;;;;5000711;28;20413;-85
2022/08/29 13:26:09;;;;;;;5.95;2.30;;;;;;;;;;4986039;28;20093;-85
2022/08/29 13:28:45;;;;;;;5.63;1.85;;;;;;;;;;5004346;28;20042;-85
2022/08/29 13:31:11;;;;;;;5.45;2.45;;;;;;;;;;4980563;28;20088;-87
2022/08/29 13:33:39;;;;;;;13.18;2.38;;;;;;;;;;4982127;28;20030;-86
2022/08/29 13:36:26;;;;;;;34.70;3.33;;;;;;;;;;4984703;28;20097;-87
2022/08/29 13:39:12;;;;;;;10.35;2.20;;;;;;;;;;4982700;28;20042;-86
2022/08/29 13:42:15;;;;;;;7.38;2.55;;;;;;;;;;4984530;28;20042;-87
2022/08/29 13:44:43;;;;;;;13.23;2.88;;;;;;;;;;4964090;28;20034;-86
2022/08/29 13:47:21;;;;;;;6.43;2.30;;;;;;;;;;4977421;28;20636;-84
2022/08/29 13:49:47;;;;;;;4.40;2.10;;;;;;;;;;4984975;28;20034;-85
2022/08/29 13:52:14;;;;;;;8.73;2.70;;;;;;;;;;4980832;28;20485;-87
2022/08/29 13:54:41;;;;;;;9.85;2.58;;;;;;;;;;4975724;28;20022;-86
2022/08/29 13:57:13;;;;;;;9.35;2.45;;;;;;;;;;4998943;28;20055;-84
2022/08/29 13:59:38;;;;;;;5.60;2.28;;;;;;;;;;4985735;28;20042;-83
2022/08/29 14:02:06;;;;;;;4.13;2.38;;;;;;;;;;4987285;28;20121;-85
2022/08/29 14:04:32;;;;;;;4.18;2.03;;;;;;;;;;4987845;28;20042;-85
2022/08/29 14:06:58;;;;;;;5.32;2.20;;;;;;;;;;4985481;28;20097;-87
2022/08/29 14:09:30;;;;;;;6.15;2.55;;;;;;;;;;4988322;28;20030;-87
2022/08/29 14:11:56;;;;;;;7.45;2.53;;;;;;;;;;4986386;28;20089;-85
2022/08/29 14:14:21;;;;;;;10.38;3.35;;;;;;;;;;4986989;28;20038;-88
2022/08/29 14:16:50;;;;;;;6.60;2.30;;;;;;;;;;4986649;28;20483;-87
2022/08/29 14:19:15;;;;;;;27.15;3.67;;;;;;;;;;4983418;28;20513;-85
2022/08/29 14:21:41;;;;;;;29.33;3.05;;;;;;;;;;4982351;28;20037;-85
2022/08/29 14:24:06;;;;;;;17.27;2.35;;;;;;;;;;4981246;28;20026;-85
2022/08/29 14:26:31;;;;;;;5.43;2.42;;;;;;;;;;4984366;28;20100;-84
2022/08/29 14:28:58;;;;;;;8.50;2.33;;;;;;;;;;4985896;28;20034;-86
2022/08/29 14:31:23;;;;;;;4.47;2.00;;;;;;;;;;4982798;28;20042;-85
2022/08/29 14:33:48;;;;;;;9.57;2.60;;;;;;;;;;4985939;28;20037;-85
2022/08/29 14:36:14;;;;;;;5.25;1.80;;;;;;;;;;4985086;28;20030;-84
2022/08/29 14:38:39;;;;;;;3.38;1.95;;;;;;;;;;4987516;28;20474;-85
2022/08/29 14:41:04;;;;;;;7.00;2.22;;;;;;;;;;4985910;28;20038;-85
2022/08/29 14:43:30;;;;;;;7.78;2.35;;;;;;;;;;4982117;28;20038;-86
2022/08/29 14:45:55;;;;;;;7.25;2.10;;;;;;;;;;4984167;28;20026;-86
2022/08/29 14:48:20;;;;;;;29.90;3.35;;;;;;;;;;4987617;28;20034;-85
2022/08/29 14:50:46;;;;;;;5.75;2.92;;;;;;;;;;4983579;28;20035;-85
2022/08/29 14:53:11;;;;;;;17.67;2.47;;;;;;;;;;4985017;28;20030;-84
2022/08/29 14:55:37;;;;;;;12.15;3.08;;;;;;;;;;4981992;28;20042;-85
2022/08/29 14:58:03;;;;;;;11.95;2.55;;;;;;;;;;4981002;28;20552;-86
2022/08/29 15:00:30;;;;;;;8.93;2.60;;;;;;;;;;4983761;28;20026;-85
2022/08/29 15:02:57;;;;;;;11.35;2.33;;;;;;;;;;4982973;28;20038;-85
2022/08/29 15:05:22;;;;;;;7.25;2.10;;;;;;;;;;4984295;28;20046;-84
2022/08/29 15:07:48;;;;;;;2.97;2.15;;;;;;;;;;4982706;28;20042;-85